sensor_id;sensor_type;location;lat;lon;timestamp;P1;durP1;ratioP1;P2;durP2;ratioP2
30888;SDS011;51092;50.874;7.024;2023-04-16T00:00:35;59.42;;;32.97;;
30888;SDS011;51092;50.874;7.024;2023-04-16T00:01:38;63.83;;;37.20;;
30888;SDS011;51092;50.874;7.024;2023-04-16T00:02:41;67.30;;;41.35;;
30888;SDS011;51092;50.874;7.024;2023-04-16T00:03:42;71.47;;;38.53;;
30888;SDS011;51092;50.874;7.024;2023-04-16T00:04:45;68.75;;;39.28;;
30888;SDS011;51092;50.874;7.024;2023-04-16T00:05:46;49.22;;;34.03;;
30888;SDS011;51092;50.874;7.024;2023-04-16T00:06:49;61.60;;;34.45;;
30888;SDS011;51092;50.874;7.024;2023-04-16T00:07:50;63.60;;;37.47;;
30888;SDS011;51092;50.874;7.024;2023-04-16T00:08:53;56.30;;;34.80;;
30888;SDS011;51092;50.874;7.024;2023-04-16T00:09:54;61.15;;;38.00;;
30888;SDS011;51092;50.874;7.024;2023-04-16T00:10:57;58.55;;;35.88;;
30888;SDS011;51092;50.874;7.024;2023-04-16T00:11:58;55.03;;;33.33;;
30888;SDS011;51092;50.874;7.024;2023-04-16T00:13:01;55.65;;;32.58;;
30888;SDS011;51092;50.874;7.024;2023-04-16T00:14:02;47.92;;;32.35;;
30888;SDS011;51092;50.874;7.024;2023-04-16T00:15:05;62.15;;;32.53;;
30888;SDS011;51092;50.874;7.024;2023-04-16T00:16:08;52.85;;;34.45;;
30888;SDS011;51092;50.874;7.024;2023-04-16T00:17:11;55.47;;;34.05;;
30888;SDS011;51092;50.874;7.024;2023-04-16T00:18:13;53.95;;;30.95;;
30888;SDS011;51092;50.874;7.024;2023-04-16T00:19:15;49.13;;;28.77;;
30888;SDS011;51092;50.874;7.024;2023-04-16T00:20:19;44.17;;;29.67;;
30888;SDS011;51092;50.874;7.024;2023-04-16T00:21:22;50.83;;;33.03;;
30888;SDS011;51092;50.874;7.024;2023-04-16T00:22:23;43.97;;;26.60;;
30888;SDS011;51092;50.874;7.024;2023-04-16T00:23:26;47.35;;;28.80;;
30888;SDS011;51092;50.874;7.024;2023-04-16T00:24:28;47.95;;;26.23;;
30888;SDS011;51092;50.874;7.024;2023-04-16T00:25:30;43.95;;;28.85;;
30888;SDS011;51092;50.874;7.024;2023-04-16T00:26:32;45.03;;;30.73;;
30888;SDS011;51092;50.874;7.024;2023-04-16T00:27:34;46.65;;;27.88;;
30888;SDS011;51092;50.874;7.024;2023-04-16T00:28:36;43.92;;;26.67;;
30888;SDS011;51092;50.874;7.024;2023-04-16T00:29:38;41.70;;;25.95;;
30888;SDS011;51092;50.874;7.024;2023-04-16T00:30:40;56.25;;;31.25;;
30888;SDS011;51092;50.874;7.024;2023-04-16T00:31:42;46.13;;;29.42;;
30888;SDS011;51092;50.874;7.024;2023-04-16T00:32:45;47.53;;;29.52;;
30888;SDS011;51092;50.874;7.024;2023-04-16T00:33:48;45.83;;;29.10;;
30888;SDS011;51092;50.874;7.024;2023-04-16T00:34:49;54.67;;;34.97;;
30888;SDS011;51092;50.874;7.024;2023-04-16T00:35:52;44.97;;;27.55;;
30888;SDS011;51092;50.874;7.024;2023-04-16T00:36:53;45.17;;;27.92;;
30888;SDS011;51092;50.874;7.024;2023-04-16T00:37:56;41.10;;;25.95;;
30888;SDS011;51092;50.874;7.024;2023-04-16T00:38:57;53.05;;;29.25;;
30888;SDS011;51092;50.874;7.024;2023-04-16T00:40:00;50.65;;;28.15;;
30888;SDS011;51092;50.874;7.024;2023-04-16T00:41:02;45.33;;;27.50;;
30888;SDS011;51092;50.874;7.024;2023-04-16T00:42:04;46.55;;;27.27;;
30888;SDS011;51092;50.874;7.024;2023-04-16T00:43:06;45.00;;;26.77;;
30888;SDS011;51092;50.874;7.024;2023-04-16T00:44:08;46.30;;;26.48;;
30888;SDS011;51092;50.874;7.024;2023-04-16T00:45:11;45.03;;;28.77;;
30888;SDS011;51092;50.874;7.024;2023-04-16T00:46:12;39.20;;;24.95;;
30888;SDS011;51092;50.874;7.024;2023-04-16T00:47:15;55.50;;;30.10;;
30888;SDS011;51092;50.874;7.024;2023-04-16T00:48:19;48.58;;;31.83;;
30888;SDS011;51092;50.874;7.024;2023-04-16T00:49:22;46.88;;;26.98;;
30888;SDS011;51092;50.874;7.024;2023-04-16T00:50:24;67.22;;;41.95;;
30888;SDS011;51092;50.874;7.024;2023-04-16T00:51:26;61.40;;;37.08;;
30888;SDS011;51092;50.874;7.024;2023-04-16T00:52:28;52.15;;;30.17;;
30888;SDS011;51092;50.874;7.024;2023-04-16T00:53:32;54.08;;;33.05;;
30888;SDS011;51092;50.874;7.024;2023-04-16T00:54:34;54.63;;;30.02;;
30888;SDS011;51092;50.874;7.024;2023-04-16T00:55:36;57.15;;;32.75;;
30888;SDS011;51092;50.874;7.024;2023-04-16T00:56:39;53.65;;;32.75;;
30888;SDS011;51092;50.874;7.024;2023-04-16T00:57:42;54.55;;;33.97;;
30888;SDS011;51092;50.874;7.024;2023-04-16T00:58:44;56.00;;;34.10;;
30888;SDS011;51092;50.874;7.024;2023-04-16T00:59:46;58.42;;;32.90;;
30888;SDS011;51092;50.874;7.024;2023-04-16T01:00:50;60.13;;;35.08;;
30888;SDS011;51092;50.874;7.024;2023-04-16T01:01:52;57.33;;;30.77;;
30888;SDS011;51092;50.874;7.024;2023-04-16T01:02:54;57.92;;;35.15;;
30888;SDS011;51092;50.874;7.024;2023-04-16T01:03:58;65.13;;;37.47;;
30888;SDS011;51092;50.874;7.024;2023-04-16T01:05:00;65.28;;;34.65;;
30888;SDS011;51092;50.874;7.024;2023-04-16T01:06:03;66.53;;;34.92;;
30888;SDS011;51092;50.874;7.024;2023-04-16T01:07:05;57.38;;;32.58;;
30888;SDS011;51092;50.874;7.024;2023-04-16T01:08:13;54.10;;;32.90;;
30888;SDS011;51092;50.874;7.024;2023-04-16T01:09:15;57.22;;;30.52;;
30888;SDS011;51092;50.874;7.024;2023-04-16T01:10:18;52.92;;;31.52;;
30888;SDS011;51092;50.874;7.024;2023-04-16T01:11:23;46.50;;;26.65;;
30888;SDS011;51092;50.874;7.024;2023-04-16T01:12:25;53.30;;;30.85;;
30888;SDS011;51092;50.874;7.024;2023-04-16T01:13:27;51.38;;;28.80;;
30888;SDS011;51092;50.874;7.024;2023-04-16T01:14:29;53.30;;;28.50;;
30888;SDS011;51092;50.874;7.024;2023-04-16T01:15:35;54.40;;;29.50;;
30888;SDS011;51092;50.874;7.024;2023-04-16T01:16:38;54.22;;;32.13;;
30888;SDS011;51092;50.874;7.024;2023-04-16T01:17:39;49.20;;;30.92;;
30888;SDS011;51092;50.874;7.024;2023-04-16T01:18:42;57.92;;;33.53;;
30888;SDS011;51092;50.874;7.024;2023-04-16T01:19:45;55.78;;;32.17;;
30888;SDS011;51092;50.874;7.024;2023-04-16T01:20:49;71.70;;;45.75;;
30888;SDS011;51092;50.874;7.024;2023-04-16T01:21:51;71.45;;;37.75;;
30888;SDS011;51092;50.874;7.024;2023-04-16T01:22:53;57.92;;;30.42;;
30888;SDS011;51092;50.874;7.024;2023-04-16T01:23:55;56.45;;;29.63;;
30888;SDS011;51092;50.874;7.024;2023-04-16T01:24:57;57.65;;;33.13;;
30888;SDS011;51092;50.874;7.024;2023-04-16T01:25:59;52.58;;;29.58;;
30888;SDS011;51092;50.874;7.024;2023-04-16T01:27:01;54.05;;;31.33;;
30888;SDS011;51092;50.874;7.024;2023-04-16T01:28:03;60.63;;;33.30;;
30888;SDS011;51092;50.874;7.024;2023-04-16T01:29:06;59.78;;;33.63;;
30888;SDS011;51092;50.874;7.024;2023-04-16T01:30:08;58.97;;;34.88;;
30888;SDS011;51092;50.874;7.024;2023-04-16T01:31:10;52.42;;;32.15;;
30888;SDS011;51092;50.874;7.024;2023-04-16T01:32:12;57.00;;;32.67;;
30888;SDS011;51092;50.874;7.024;2023-04-16T01:33:14;70.07;;;32.35;;
30888;SDS011;51092;50.874;7.024;2023-04-16T01:34:17;50.55;;;32.55;;
30888;SDS011;51092;50.874;7.024;2023-04-16T01:35:20;60.22;;;33.53;;
30888;SDS011;51092;50.874;7.024;2023-04-16T01:36:23;62.75;;;37.97;;
30888;SDS011;51092;50.874;7.024;2023-04-16T01:37:26;59.20;;;32.72;;
30888;SDS011;51092;50.874;7.024;2023-04-16T01:38:28;66.68;;;39.70;;
30888;SDS011;51092;50.874;7.024;2023-04-16T01:39:31;58.95;;;33.47;;
30888;SDS011;51092;50.874;7.024;2023-04-16T01:40:32;57.45;;;33.70;;
30888;SDS011;51092;50.874;7.024;2023-04-16T01:41:35;62.17;;;34.00;;
30888;SDS011;51092;50.874;7.024;2023-04-16T01:42:39;60.13;;;34.70;;
30888;SDS011;51092;50.874;7.024;2023-04-16T01:43:42;63.97;;;32.97;;
30888;SDS011;51092;50.874;7.024;2023-04-16T01:44:43;61.92;;;31.15;;
30888;SDS011;51092;50.874;7.024;2023-04-16T01:45:48;62.28;;;31.38;;
30888;SDS011;51092;50.874;7.024;2023-04-16T01:46:49;67.20;;;33.92;;
30888;SDS011;51092;50.874;7.024;2023-04-16T01:47:52;65.80;;;34.58;;
30888;SDS011;51092;50.874;7.024;2023-04-16T01:48:54;73.53;;;35.92;;
30888;SDS011;51092;50.874;7.024;2023-04-16T01:49:57;62.80;;;35.05;;
30888;SDS011;51092;50.874;7.024;2023-04-16T01:50:59;65.28;;;38.35;;
30888;SDS011;51092;50.874;7.024;2023-04-16T01:52:03;70.38;;;35.80;;
30888;SDS011;51092;50.874;7.024;2023-04-16T01:53:05;63.67;;;33.22;;
30888;SDS011;51092;50.874;7.024;2023-04-16T01:54:09;63.72;;;34.45;;
30888;SDS011;51092;50.874;7.024;2023-04-16T01:55:10;63.17;;;34.03;;
30888;SDS011;51092;50.874;7.024;2023-04-16T01:56:13;74.28;;;40.67;;
30888;SDS011;51092;50.874;7.024;2023-04-16T01:57:15;61.20;;;36.13;;
30888;SDS011;51092;50.874;7.024;2023-04-16T01:58:17;62.15;;;32.83;;
30888;SDS011;51092;50.874;7.024;2023-04-16T01:59:19;56.60;;;29.95;;
30888;SDS011;51092;50.874;7.024;2023-04-16T02:00:21;62.15;;;35.10;;
30888;SDS011;51092;50.874;7.024;2023-04-16T02:01:23;66.55;;;39.08;;
30888;SDS011;51092;50.874;7.024;2023-04-16T02:02:25;58.00;;;35.60;;
30888;SDS011;51092;50.874;7.024;2023-04-16T02:03:29;70.30;;;35.78;;
30888;SDS011;51092;50.874;7.024;2023-04-16T02:04:31;56.53;;;35.70;;
30888;SDS011;51092;50.874;7.024;2023-04-16T02:05:33;59.83;;;34.25;;
30888;SDS011;51092;50.874;7.024;2023-04-16T02:06:36;66.70;;;32.08;;
30888;SDS011;51092;50.874;7.024;2023-04-16T02:07:38;67.45;;;37.58;;
30888;SDS011;51092;50.874;7.024;2023-04-16T02:08:41;64.78;;;37.92;;
30888;SDS011;51092;50.874;7.024;2023-04-16T02:09:45;58.58;;;34.95;;
30888;SDS011;51092;50.874;7.024;2023-04-16T02:10:49;64.47;;;34.15;;
30888;SDS011;51092;50.874;7.024;2023-04-16T02:11:51;70.57;;;37.67;;
30888;SDS011;51092;50.874;7.024;2023-04-16T02:12:54;69.72;;;37.50;;
30888;SDS011;51092;50.874;7.024;2023-04-16T02:13:56;64.07;;;36.25;;
30888;SDS011;51092;50.874;7.024;2023-04-16T02:14:58;65.60;;;34.55;;
30888;SDS011;51092;50.874;7.024;2023-04-16T02:16:00;62.35;;;35.90;;
30888;SDS011;51092;50.874;7.024;2023-04-16T02:17:02;67.03;;;36.55;;
30888;SDS011;51092;50.874;7.024;2023-04-16T02:18:04;66.95;;;37.83;;
30888;SDS011;51092;50.874;7.024;2023-04-16T02:19:07;68.40;;;37.35;;
30888;SDS011;51092;50.874;7.024;2023-04-16T02:20:09;63.72;;;37.20;;
30888;SDS011;51092;50.874;7.024;2023-04-16T02:21:12;70.25;;;42.95;;
30888;SDS011;51092;50.874;7.024;2023-04-16T02:22:13;62.53;;;35.95;;
30888;SDS011;51092;50.874;7.024;2023-04-16T02:23:17;62.50;;;35.67;;
30888;SDS011;51092;50.874;7.024;2023-04-16T02:24:19;62.63;;;34.90;;
30888;SDS011;51092;50.874;7.024;2023-04-16T02:25:22;78.85;;;38.33;;
30888;SDS011;51092;50.874;7.024;2023-04-16T02:26:24;65.60;;;36.25;;
30888;SDS011;51092;50.874;7.024;2023-04-16T02:27:26;73.07;;;41.13;;
30888;SDS011;51092;50.874;7.024;2023-04-16T02:28:28;77.43;;;43.45;;
30888;SDS011;51092;50.874;7.024;2023-04-16T02:29:30;74.55;;;39.22;;
30888;SDS011;51092;50.874;7.024;2023-04-16T02:30:32;82.07;;;40.75;;
30888;SDS011;51092;50.874;7.024;2023-04-16T02:31:35;73.38;;;40.13;;
30888;SDS011;51092;50.874;7.024;2023-04-16T02:32:38;74.90;;;39.28;;
30888;SDS011;51092;50.874;7.024;2023-04-16T02:33:40;80.05;;;45.03;;
30888;SDS011;51092;50.874;7.024;2023-04-16T02:34:41;74.68;;;39.45;;
30888;SDS011;51092;50.874;7.024;2023-04-16T02:35:44;82.80;;;48.95;;
30888;SDS011;51092;50.874;7.024;2023-04-16T02:36:46;79.03;;;40.63;;
30888;SDS011;51092;50.874;7.024;2023-04-16T02:37:48;76.70;;;37.15;;
30888;SDS011;51092;50.874;7.024;2023-04-16T02:38:51;75.32;;;40.90;;
30888;SDS011;51092;50.874;7.024;2023-04-16T02:39:54;72.45;;;40.05;;
30888;SDS011;51092;50.874;7.024;2023-04-16T02:40:55;74.30;;;41.65;;
30888;SDS011;51092;50.874;7.024;2023-04-16T02:41:59;76.57;;;44.70;;
30888;SDS011;51092;50.874;7.024;2023-04-16T02:43:02;84.63;;;46.45;;
30888;SDS011;51092;50.874;7.024;2023-04-16T02:44:04;71.90;;;40.63;;
30888;SDS011;51092;50.874;7.024;2023-04-16T02:45:06;69.13;;;45.10;;
30888;SDS011;51092;50.874;7.024;2023-04-16T02:46:10;80.30;;;46.35;;
30888;SDS011;51092;50.874;7.024;2023-04-16T02:47:11;72.97;;;39.30;;
30888;SDS011;51092;50.874;7.024;2023-04-16T02:48:13;81.10;;;42.50;;
30888;SDS011;51092;50.874;7.024;2023-04-16T02:49:14;79.18;;;40.72;;
30888;SDS011;51092;50.874;7.024;2023-04-16T02:50:17;71.22;;;40.03;;
30888;SDS011;51092;50.874;7.024;2023-04-16T02:51:18;75.68;;;38.28;;
30888;SDS011;51092;50.874;7.024;2023-04-16T02:52:20;71.47;;;40.47;;
30888;SDS011;51092;50.874;7.024;2023-04-16T02:53:21;79.13;;;40.30;;
30888;SDS011;51092;50.874;7.024;2023-04-16T02:54:24;60.00;;;34.53;;
30888;SDS011;51092;50.874;7.024;2023-04-16T02:55:25;60.72;;;35.92;;
30888;SDS011;51092;50.874;7.024;2023-04-16T02:56:32;59.25;;;34.17;;
30888;SDS011;51092;50.874;7.024;2023-04-16T02:57:33;70.18;;;39.05;;
30888;SDS011;51092;50.874;7.024;2023-04-16T02:58:36;73.53;;;39.33;;
30888;SDS011;51092;50.874;7.024;2023-04-16T02:59:37;67.75;;;37.85;;
30888;SDS011;51092;50.874;7.024;2023-04-16T03:00:40;70.43;;;37.72;;
30888;SDS011;51092;50.874;7.024;2023-04-16T03:01:41;71.05;;;43.55;;
30888;SDS011;51092;50.874;7.024;2023-04-16T03:02:44;63.17;;;34.58;;
30888;SDS011;51092;50.874;7.024;2023-04-16T03:03:45;68.05;;;36.50;;
30888;SDS011;51092;50.874;7.024;2023-04-16T03:04:48;58.25;;;30.83;;
30888;SDS011;51092;50.874;7.024;2023-04-16T03:05:49;62.20;;;35.75;;
30888;SDS011;51092;50.874;7.024;2023-04-16T03:06:52;69.93;;;40.20;;
30888;SDS011;51092;50.874;7.024;2023-04-16T03:07:53;65.00;;;36.72;;
30888;SDS011;51092;50.874;7.024;2023-04-16T03:08:57;60.03;;;33.72;;
30888;SDS011;51092;50.874;7.024;2023-04-16T03:09:59;65.40;;;39.08;;
30888;SDS011;51092;50.874;7.024;2023-04-16T03:11:02;65.57;;;35.47;;
30888;SDS011;51092;50.874;7.024;2023-04-16T03:12:04;68.65;;;37.90;;
30888;SDS011;51092;50.874;7.024;2023-04-16T03:13:06;61.03;;;33.15;;
30888;SDS011;51092;50.874;7.024;2023-04-16T03:14:08;64.30;;;35.47;;
30888;SDS011;51092;50.874;7.024;2023-04-16T03:15:12;63.30;;;37.13;;
30888;SDS011;51092;50.874;7.024;2023-04-16T03:16:14;62.22;;;36.65;;
30888;SDS011;51092;50.874;7.024;2023-04-16T03:17:16;55.97;;;32.85;;
30888;SDS011;51092;50.874;7.024;2023-04-16T03:18:18;63.45;;;37.10;;
30888;SDS011;51092;50.874;7.024;2023-04-16T03:19:20;66.22;;;33.60;;
30888;SDS011;51092;50.874;7.024;2023-04-16T03:20:22;54.15;;;33.72;;
30888;SDS011;51092;50.874;7.024;2023-04-16T03:21:24;59.97;;;35.90;;
30888;SDS011;51092;50.874;7.024;2023-04-16T03:22:27;61.28;;;34.72;;
30888;SDS011;51092;50.874;7.024;2023-04-16T03:23:29;66.90;;;36.70;;
30888;SDS011;51092;50.874;7.024;2023-04-16T03:24:31;57.03;;;34.05;;
30888;SDS011;51092;50.874;7.024;2023-04-16T03:25:35;51.28;;;31.92;;
30888;SDS011;51092;50.874;7.024;2023-04-16T03:26:36;59.63;;;35.67;;
30888;SDS011;51092;50.874;7.024;2023-04-16T03:27:39;60.10;;;36.35;;
30888;SDS011;51092;50.874;7.024;2023-04-16T03:28:40;57.65;;;36.15;;
30888;SDS011;51092;50.874;7.024;2023-04-16T03:29:43;59.97;;;36.10;;
30888;SDS011;51092;50.874;7.024;2023-04-16T03:30:49;73.25;;;41.28;;
30888;SDS011;51092;50.874;7.024;2023-04-16T03:31:52;66.93;;;36.80;;
30888;SDS011;51092;50.874;7.024;2023-04-16T03:32:54;71.03;;;43.53;;
30888;SDS011;51092;50.874;7.024;2023-04-16T03:33:56;70.57;;;43.05;;
30888;SDS011;51092;50.874;7.024;2023-04-16T03:34:58;80.32;;;43.20;;
30888;SDS011;51092;50.874;7.024;2023-04-16T03:36:00;65.15;;;35.95;;
30888;SDS011;51092;50.874;7.024;2023-04-16T03:37:03;64.85;;;36.97;;
30888;SDS011;51092;50.874;7.024;2023-04-16T03:38:05;67.07;;;39.03;;
30888;SDS011;51092;50.874;7.024;2023-04-16T03:39:07;72.40;;;38.47;;
30888;SDS011;51092;50.874;7.024;2023-04-16T03:40:10;69.70;;;37.97;;
30888;SDS011;51092;50.874;7.024;2023-04-16T03:41:13;75.10;;;40.08;;
30888;SDS011;51092;50.874;7.024;2023-04-16T03:42:16;73.10;;;37.72;;
30888;SDS011;51092;50.874;7.024;2023-04-16T03:43:17;64.90;;;35.70;;
30888;SDS011;51092;50.874;7.024;2023-04-16T03:44:20;81.95;;;43.38;;
30888;SDS011;51092;50.874;7.024;2023-04-16T03:45:21;68.85;;;37.22;;
30888;SDS011;51092;50.874;7.024;2023-04-16T03:46:24;74.85;;;39.70;;
30888;SDS011;51092;50.874;7.024;2023-04-16T03:47:25;70.35;;;38.17;;
30888;SDS011;51092;50.874;7.024;2023-04-16T03:48:28;69.70;;;38.92;;
30888;SDS011;51092;50.874;7.024;2023-04-16T03:49:29;81.75;;;46.03;;
30888;SDS011;51092;50.874;7.024;2023-04-16T03:50:32;69.22;;;42.47;;
30888;SDS011;51092;50.874;7.024;2023-04-16T03:51:33;70.50;;;38.28;;
30888;SDS011;51092;50.874;7.024;2023-04-16T03:52:35;69.53;;;40.08;;
30888;SDS011;51092;50.874;7.024;2023-04-16T03:53:37;75.63;;;38.25;;
30888;SDS011;51092;50.874;7.024;2023-04-16T03:54:39;66.70;;;38.95;;
30888;SDS011;51092;50.874;7.024;2023-04-16T03:55:41;74.40;;;41.15;;
30888;SDS011;51092;50.874;7.024;2023-04-16T03:56:45;72.68;;;46.75;;
30888;SDS011;51092;50.874;7.024;2023-04-16T03:57:46;73.70;;;41.40;;
30888;SDS011;51092;50.874;7.024;2023-04-16T03:58:49;81.47;;;43.17;;
30888;SDS011;51092;50.874;7.024;2023-04-16T03:59:50;73.25;;;43.22;;
30888;SDS011;51092;50.874;7.024;2023-04-16T04:00:56;69.68;;;41.65;;
30888;SDS011;51092;50.874;7.024;2023-04-16T04:01:57;82.35;;;43.55;;
30888;SDS011;51092;50.874;7.024;2023-04-16T04:03:00;85.70;;;46.17;;
30888;SDS011;51092;50.874;7.024;2023-04-16T04:04:01;95.38;;;51.75;;
30888;SDS011;51092;50.874;7.024;2023-04-16T04:05:04;89.63;;;51.78;;
30888;SDS011;51092;50.874;7.024;2023-04-16T04:06:06;79.78;;;45.40;;
30888;SDS011;51092;50.874;7.024;2023-04-16T04:07:08;86.30;;;48.33;;
30888;SDS011;51092;50.874;7.024;2023-04-16T04:08:10;78.15;;;45.90;;
30888;SDS011;51092;50.874;7.024;2023-04-16T04:09:12;86.45;;;50.25;;
30888;SDS011;51092;50.874;7.024;2023-04-16T04:10:16;78.40;;;44.33;;
30888;SDS011;51092;50.874;7.024;2023-04-16T04:11:18;96.15;;;53.20;;
30888;SDS011;51092;50.874;7.024;2023-04-16T04:12:21;91.93;;;50.97;;
30888;SDS011;51092;50.874;7.024;2023-04-16T04:13:24;94.88;;;49.63;;
30888;SDS011;51092;50.874;7.024;2023-04-16T04:14:25;102.68;;;53.92;;
30888;SDS011;51092;50.874;7.024;2023-04-16T04:15:28;105.43;;;56.00;;
30888;SDS011;51092;50.874;7.024;2023-04-16T04:16:29;111.97;;;50.88;;
30888;SDS011;51092;50.874;7.024;2023-04-16T04:17:32;108.88;;;55.03;;
30888;SDS011;51092;50.874;7.024;2023-04-16T04:18:33;106.78;;;56.53;;
30888;SDS011;51092;50.874;7.024;2023-04-16T04:19:36;114.22;;;56.42;;
30888;SDS011;51092;50.874;7.024;2023-04-16T04:20:38;110.00;;;56.15;;
30888;SDS011;51092;50.874;7.024;2023-04-16T04:21:40;109.78;;;55.20;;
30888;SDS011;51092;50.874;7.024;2023-04-16T04:22:42;111.78;;;54.65;;
30888;SDS011;51092;50.874;7.024;2023-04-16T04:23:44;117.43;;;55.60;;
30888;SDS011;51092;50.874;7.024;2023-04-16T04:24:46;126.28;;;59.45;;
30888;SDS011;51092;50.874;7.024;2023-04-16T04:25:48;123.00;;;61.17;;
30888;SDS011;51092;50.874;7.024;2023-04-16T04:26:50;140.10;;;70.05;;
30888;SDS011;51092;50.874;7.024;2023-04-16T04:27:54;138.10;;;66.47;;
30888;SDS011;51092;50.874;7.024;2023-04-16T04:28:55;134.70;;;64.47;;
30888;SDS011;51092;50.874;7.024;2023-04-16T04:30:01;131.40;;;65.35;;
30888;SDS011;51092;50.874;7.024;2023-04-16T04:31:04;149.95;;;75.05;;
30888;SDS011;51092;50.874;7.024;2023-04-16T04:32:06;141.45;;;68.88;;
30888;SDS011;51092;50.874;7.024;2023-04-16T04:33:08;148.73;;;71.63;;
30888;SDS011;51092;50.874;7.024;2023-04-16T04:34:10;158.82;;;82.70;;
30888;SDS011;51092;50.874;7.024;2023-04-16T04:35:12;153.68;;;71.32;;
30888;SDS011;51092;50.874;7.024;2023-04-16T04:36:14;159.48;;;74.57;;
30888;SDS011;51092;50.874;7.024;2023-04-16T04:37:16;161.48;;;84.45;;
30888;SDS011;51092;50.874;7.024;2023-04-16T04:38:21;157.70;;;70.78;;
30888;SDS011;51092;50.874;7.024;2023-04-16T04:39:24;166.27;;;80.20;;
30888;SDS011;51092;50.874;7.024;2023-04-16T04:40:27;159.65;;;75.90;;
30888;SDS011;51092;50.874;7.024;2023-04-16T04:41:28;174.05;;;75.43;;
30888;SDS011;51092;50.874;7.024;2023-04-16T04:42:31;161.55;;;76.35;;
30888;SDS011;51092;50.874;7.024;2023-04-16T04:43:34;160.90;;;71.03;;
30888;SDS011;51092;50.874;7.024;2023-04-16T04:44:36;166.95;;;77.90;;
30888;SDS011;51092;50.874;7.024;2023-04-16T04:45:38;175.65;;;74.85;;
30888;SDS011;51092;50.874;7.024;2023-04-16T04:46:40;165.95;;;78.80;;
30888;SDS011;51092;50.874;7.024;2023-04-16T04:47:42;159.93;;;68.57;;
30888;SDS011;51092;50.874;7.024;2023-04-16T04:48:44;166.27;;;70.80;;
30888;SDS011;51092;50.874;7.024;2023-04-16T04:49:46;173.65;;;81.45;;
30888;SDS011;51092;50.874;7.024;2023-04-16T04:50:48;165.00;;;73.32;;
30888;SDS011;51092;50.874;7.024;2023-04-16T04:51:50;174.10;;;71.53;;
30888;SDS011;51092;50.874;7.024;2023-04-16T04:52:54;171.88;;;82.68;;
30888;SDS011;51092;50.874;7.024;2023-04-16T04:53:56;158.82;;;73.22;;
30888;SDS011;51092;50.874;7.024;2023-04-16T04:54:58;175.27;;;83.90;;
30888;SDS011;51092;50.874;7.024;2023-04-16T04:56:00;200.27;;;101.13;;
30888;SDS011;51092;50.874;7.024;2023-04-16T04:57:02;182.98;;;80.65;;
30888;SDS011;51092;50.874;7.024;2023-04-16T04:58:04;185.68;;;81.47;;
30888;SDS011;51092;50.874;7.024;2023-04-16T04:59:09;183.18;;;83.45;;
30888;SDS011;51092;50.874;7.024;2023-04-16T05:00:12;173.32;;;82.22;;
30888;SDS011;51092;50.874;7.024;2023-04-16T05:01:13;166.88;;;71.72;;
30888;SDS011;51092;50.874;7.024;2023-04-16T05:02:16;161.75;;;71.63;;
30888;SDS011;51092;50.874;7.024;2023-04-16T05:03:18;169.23;;;74.63;;
30888;SDS011;51092;50.874;7.024;2023-04-16T05:04:21;156.35;;;71.25;;
30888;SDS011;51092;50.874;7.024;2023-04-16T05:05:23;150.95;;;69.85;;
30888;SDS011;51092;50.874;7.024;2023-04-16T05:06:28;164.55;;;72.28;;
30888;SDS011;51092;50.874;7.024;2023-04-16T05:07:29;151.23;;;69.53;;
30888;SDS011;51092;50.874;7.024;2023-04-16T05:08:32;157.98;;;73.97;;
30888;SDS011;51092;50.874;7.024;2023-04-16T05:09:33;143.77;;;70.35;;
30888;SDS011;51092;50.874;7.024;2023-04-16T05:10:35;151.90;;;64.57;;
30888;SDS011;51092;50.874;7.024;2023-04-16T05:11:37;145.98;;;65.03;;
30888;SDS011;51092;50.874;7.024;2023-04-16T05:12:40;146.93;;;64.90;;
30888;SDS011;51092;50.874;7.024;2023-04-16T05:13:43;149.25;;;66.85;;
30888;SDS011;51092;50.874;7.024;2023-04-16T05:14:47;145.80;;;66.53;;
30888;SDS011;51092;50.874;7.024;2023-04-16T05:15:49;139.20;;;62.92;;
30888;SDS011;51092;50.874;7.024;2023-04-16T05:16:51;135.45;;;65.43;;
30888;SDS011;51092;50.874;7.024;2023-04-16T05:17:53;129.00;;;60.55;;
30888;SDS011;51092;50.874;7.024;2023-04-16T05:18:56;134.02;;;60.70;;
30888;SDS011;51092;50.874;7.024;2023-04-16T05:19:58;125.75;;;58.95;;
30888;SDS011;51092;50.874;7.024;2023-04-16T05:21:01;127.35;;;63.22;;
30888;SDS011;51092;50.874;7.024;2023-04-16T05:22:03;124.70;;;59.67;;
30888;SDS011;51092;50.874;7.024;2023-04-16T05:23:08;136.95;;;66.05;;
30888;SDS011;51092;50.874;7.024;2023-04-16T05:24:11;137.57;;;65.50;;
30888;SDS011;51092;50.874;7.024;2023-04-16T05:25:12;141.38;;;66.38;;
30888;SDS011;51092;50.874;7.024;2023-04-16T05:26:15;145.10;;;70.95;;
30888;SDS011;51092;50.874;7.024;2023-04-16T05:27:16;140.50;;;70.82;;
30888;SDS011;51092;50.874;7.024;2023-04-16T05:28:19;141.30;;;64.63;;
30888;SDS011;51092;50.874;7.024;2023-04-16T05:29:20;134.43;;;59.33;;
30888;SDS011;51092;50.874;7.024;2023-04-16T05:30:24;133.35;;;63.90;;
30888;SDS011;51092;50.874;7.024;2023-04-16T05:31:26;127.53;;;61.63;;
30888;SDS011;51092;50.874;7.024;2023-04-16T05:32:28;136.73;;;59.92;;
30888;SDS011;51092;50.874;7.024;2023-04-16T05:33:30;140.52;;;65.25;;
30888;SDS011;51092;50.874;7.024;2023-04-16T05:34:32;140.90;;;67.75;;
30888;SDS011;51092;50.874;7.024;2023-04-16T05:35:34;147.05;;;73.70;;
30888;SDS011;51092;50.874;7.024;2023-04-16T05:36:36;136.23;;;61.60;;
30888;SDS011;51092;50.874;7.024;2023-04-16T05:37:38;134.20;;;60.55;;
30888;SDS011;51092;50.874;7.024;2023-04-16T05:38:40;146.35;;;66.70;;
30888;SDS011;51092;50.874;7.024;2023-04-16T05:39:41;141.75;;;68.80;;
30888;SDS011;51092;50.874;7.024;2023-04-16T05:40:44;125.00;;;57.38;;
30888;SDS011;51092;50.874;7.024;2023-04-16T05:41:45;133.63;;;60.88;;
30888;SDS011;51092;50.874;7.024;2023-04-16T05:42:48;136.38;;;61.70;;
30888;SDS011;51092;50.874;7.024;2023-04-16T05:43:50;120.32;;;57.28;;
30888;SDS011;51092;50.874;7.024;2023-04-16T05:44:52;144.38;;;63.63;;
30888;SDS011;51092;50.874;7.024;2023-04-16T05:45:55;139.05;;;60.80;;
30888;SDS011;51092;50.874;7.024;2023-04-16T05:46:57;149.57;;;69.90;;
30888;SDS011;51092;50.874;7.024;2023-04-16T05:47:59;141.27;;;65.60;;
30888;SDS011;51092;50.874;7.024;2023-04-16T05:49:01;134.95;;;63.38;;
30888;SDS011;51092;50.874;7.024;2023-04-16T05:50:03;137.32;;;66.75;;
30888;SDS011;51092;50.874;7.024;2023-04-16T05:51:06;133.02;;;64.93;;
30888;SDS011;51092;50.874;7.024;2023-04-16T05:52:07;150.60;;;66.38;;
30888;SDS011;51092;50.874;7.024;2023-04-16T05:53:10;136.80;;;60.83;;
30888;SDS011;51092;50.874;7.024;2023-04-16T05:54:14;137.40;;;62.38;;
30888;SDS011;51092;50.874;7.024;2023-04-16T05:55:15;139.90;;;70.32;;
30888;SDS011;51092;50.874;7.024;2023-04-16T05:56:18;133.75;;;59.45;;
30888;SDS011;51092;50.874;7.024;2023-04-16T05:57:21;131.38;;;62.95;;
30888;SDS011;51092;50.874;7.024;2023-04-16T05:58:23;150.27;;;67.88;;
30888;SDS011;51092;50.874;7.024;2023-04-16T05:59:25;128.82;;;58.97;;
30888;SDS011;51092;50.874;7.024;2023-04-16T06:00:27;128.43;;;58.53;;
30888;SDS011;51092;50.874;7.024;2023-04-16T06:01:30;124.88;;;61.40;;
30888;SDS011;51092;50.874;7.024;2023-04-16T06:02:31;141.40;;;58.60;;
30888;SDS011;51092;50.874;7.024;2023-04-16T06:03:33;140.30;;;67.35;;